Time;durP1;ratioP1;P1;durP2;ratioP2;P2;SDS_P1;SDS_P2;PMS_P1;PMS_P2;Temp;Humidity;BMP_temperature;BMP_pressure;BME280_temperature;BME280_humidity;BME280_pressure;Samples;Min_cycle;Max_cycle;Signal;HPM_P1;HPM_P2
2021/12/20 00:01:08;;;;;;;17.13;7.97;;;;;;;;;;6207649;28;20041;-62
2021/12/20 00:04:10;;;;;;;17.63;8.07;;;;;;;;;;6203369;28;20732;-62
2021/12/20 00:07:11;;;;;;;16.95;8.00;;;;;;;;;;6204848;28;20050;-61
2021/12/20 00:10:12;;;;;;;15.52;7.90;;;;;;;;;;6200749;28;20555;-62
2021/12/20 00:13:13;;;;;;;14.80;7.97;;;;;;;;;;6200701;28;20105;-62
2021/12/20 00:16:14;;;;;;;16.05;7.70;;;;;;;;;;6198518;28;20485;-63
2021/12/20 00:19:15;;;;;;;12.73;6.88;;;;;;;;;;6204754;28;20129;-62
2021/12/20 00:22:16;;;;;;;14.68;6.93;;;;;;;;;;6204672;28;20061;-63
2021/12/20 00:25:17;;;;;;;13.68;7.22;;;;;;;;;;6202786;28;20054;-61
2021/12/20 00:28:19;;;;;;;14.73;7.32;;;;;;;;;;6204007;28;20546;-62
2021/12/20 00:31:20;;;;;;;17.25;8.13;;;;;;;;;;6203872;28;20054;-61
2021/12/20 00:34:21;;;;;;;14.70;8.15;;;;;;;;;;6200756;28;20077;-62
2021/12/20 00:40:41;;;;;;;13.75;7.63;;;;;;;;;;6199253;28;20187;-62
2021/12/20 00:43:41;;;;;;;19.27;8.15;;;;;;;;;;6197766;28;20046;-63
2021/12/20 00:46:42;;;;;;;17.65;7.85;;;;;;;;;;6202540;28;20119;-61
2021/12/20 00:49:42;;;;;;;16.02;7.13;;;;;;;;;;6203597;28;20061;-61
2021/12/20 00:52:44;;;;;;;17.45;6.70;;;;;;;;;;6204008;28;20046;-62
2021/12/20 00:55:45;;;;;;;15.87;7.77;;;;;;;;;;6203436;28;20136;-63
2021/12/20 00:58:46;;;;;;;17.50;8.02;;;;;;;;;;6199501;28;20136;-63
2021/12/20 01:01:47;;;;;;;16.02;8.57;;;;;;;;;;6202615;28;20051;-62
2021/12/20 01:04:47;;;;;;;14.93;8.20;;;;;;;;;;6199493;28;20085;-62
2021/12/20 01:07:48;;;;;;;17.88;7.85;;;;;;;;;;6200605;28;20049;-61
2021/12/20 01:10:52;;;;;;;17.35;7.40;;;;;;;;;;6202271;28;20034;-62
2021/12/20 01:13:54;;;;;;;16.10;7.93;;;;;;;;;;6202333;28;20054;-61
2021/12/20 01:16:56;;;;;;;18.40;7.53;;;;;;;;;;6199064;28;20124;-62
2021/12/20 01:19:56;;;;;;;15.75;7.55;;;;;;;;;;6203684;28;20061;-61
2021/12/20 01:22:57;;;;;;;14.35;7.53;;;;;;;;;;6204804;28;20569;-61
2021/12/20 01:25:58;;;;;;;15.23;7.03;;;;;;;;;;6196441;28;20051;-61
2021/12/20 01:28:59;;;;;;;13.25;7.05;;;;;;;;;;6202434;28;20062;-61
2021/12/20 01:31:59;;;;;;;16.65;6.30;;;;;;;;;;6207314;28;20137;-61
2021/12/20 01:35:00;;;;;;;16.02;6.30;;;;;;;;;;6198448;28;20148;-62
2021/12/20 01:38:01;;;;;;;11.88;5.70;;;;;;;;;;6202678;28;20080;-61
2021/12/20 01:41:02;;;;;;;14.07;6.53;;;;;;;;;;6196473;28;20050;-62
2021/12/20 01:44:03;;;;;;;16.13;6.10;;;;;;;;;;6200742;28;20052;-61
2021/12/20 01:47:04;;;;;;;13.20;6.35;;;;;;;;;;6200041;28;20045;-60
2021/12/20 01:50:12;;;;;;;14.15;5.75;;;;;;;;;;6199651;28;20050;-62
2021/12/20 01:53:24;;;;;;;12.65;6.18;;;;;;;;;;6204856;28;20065;-61
2021/12/20 01:56:26;;;;;;;13.03;6.70;;;;;;;;;;6203552;28;20417;-62
2021/12/20 01:59:28;;;;;;;13.40;5.32;;;;;;;;;;6198105;28;20594;-61
2021/12/20 02:02:28;;;;;;;10.05;5.35;;;;;;;;;;6199666;28;20042;-61
2021/12/20 02:05:51;;;;;;;12.48;5.95;;;;;;;;;;6199054;28;20573;-61
2021/12/20 02:08:51;;;;;;;11.60;5.80;;;;;;;;;;6204909;28;20042;-61
2021/12/20 02:11:52;;;;;;;15.23;5.45;;;;;;;;;;6203965;28;20096;-61
2021/12/20 02:14:53;;;;;;;11.05;5.18;;;;;;;;;;6200043;28;20058;-61
2021/12/20 02:17:53;;;;;;;9.73;4.78;;;;;;;;;;6201353;28;20141;-60
2021/12/20 02:20:54;;;;;;;11.48;4.65;;;;;;;;;;6206571;28;20049;-61
2021/12/20 02:23:55;;;;;;;11.73;4.75;;;;;;;;;;6208383;28;20080;-62
2021/12/20 02:26:55;;;;;;;9.10;4.50;;;;;;;;;;6206481;28;20073;-61
2021/12/20 02:30:12;;;;;;;10.77;4.90;;;;;;;;;;6204114;28;20068;-62
2021/12/20 02:39:55;;;;;;;9.77;4.70;;;;;;;;;;6199613;28;20081;-62
2021/12/20 02:42:56;;;;;;;9.13;5.07;;;;;;;;;;6207499;28;20137;-62
2021/12/20 02:46:01;;;;;;;9.95;5.05;;;;;;;;;;6206002;28;20408;-63
2021/12/20 02:49:07;;;;;;;12.07;5.15;;;;;;;;;;6208367;28;20072;-63
2021/12/20 02:52:08;;;;;;;10.43;5.03;;;;;;;;;;6207317;28;20046;-62
2021/12/20 02:55:10;;;;;;;10.65;4.22;;;;;;;;;;6207102;28;20081;-60
2021/12/20 02:58:10;;;;;;;12.25;4.38;;;;;;;;;;6208817;28;20128;-63
2021/12/20 03:01:12;;;;;;;7.38;3.85;;;;;;;;;;6210087;28;20783;-63
2021/12/20 03:04:12;;;;;;;9.05;4.50;;;;;;;;;;6220518;28;20132;-63
2021/12/20 03:07:21;;;;;;;9.55;4.55;;;;;;;;;;6220590;28;20520;-62
2021/12/20 03:10:23;;;;;;;8.82;4.65;;;;;;;;;;6209672;28;20260;-62
2021/12/20 03:13:23;;;;;;;12.10;4.57;;;;;;;;;;6211105;28;20104;-63
2021/12/20 03:16:24;;;;;;;9.80;4.50;;;;;;;;;;6205759;28;20081;-62
2021/12/20 03:19:26;;;;;;;11.63;4.53;;;;;;;;;;6196968;28;20493;-63
2021/12/20 03:22:26;;;;;;;9.50;4.87;;;;;;;;;;6199115;28;20408;-61
2021/12/20 03:25:27;;;;;;;9.75;4.65;;;;;;;;;;6200323;28;20049;-62
2021/12/20 03:28:27;;;;;;;14.57;4.85;;;;;;;;;;6203920;28;20049;-61
2021/12/20 03:31:28;;;;;;;11.65;4.57;;;;;;;;;;6202528;28;20046;-62
2021/12/20 03:34:29;;;;;;;10.18;4.85;;;;;;;;;;6199077;28;20489;-62
2021/12/20 03:37:29;;;;;;;9.82;4.65;;;;;;;;;;6207250;28;20049;-62
2021/12/20 03:40:30;;;;;;;9.60;4.28;;;;;;;;;;6199571;28;20049;-61
2021/12/20 03:43:31;;;;;;;9.05;4.32;;;;;;;;;;6202135;28;20137;-62
2021/12/20 03:46:32;;;;;;;9.57;4.40;;;;;;;;;;6204529;28;20129;-61
2021/12/20 03:49:33;;;;;;;9.87;4.57;;;;;;;;;;6208415;28;20064;-62
2021/12/20 03:52:34;;;;;;;9.70;4.82;;;;;;;;;;6203411;28;20042;-61
2021/12/20 03:55:35;;;;;;;10.07;4.35;;;;;;;;;;6204121;28;20056;-63
2021/12/20 03:58:36;;;;;;;9.00;4.10;;;;;;;;;;6197466;28;20042;-63
2021/12/20 04:01:37;;;;;;;9.20;4.20;;;;;;;;;;6200212;28;20052;-62
2021/12/20 04:04:38;;;;;;;9.63;4.10;;;;;;;;;;6209545;28;20054;-63
2021/12/20 04:07:39;;;;;;;10.45;4.32;;;;;;;;;;6207178;28;20085;-61
2021/12/20 04:10:39;;;;;;;9.70;3.90;;;;;;;;;;6199546;28;20467;-61
2021/12/20 04:13:40;;;;;;;10.88;3.80;;;;;;;;;;6202257;28;20541;-62
2021/12/20 04:16:41;;;;;;;7.63;3.80;;;;;;;;;;6195984;28;20049;-62
2021/12/20 04:19:41;;;;;;;8.32;3.75;;;;;;;;;;6202721;28;20042;-63
2021/12/20 04:22:42;;;;;;;8.85;4.53;;;;;;;;;;6205020;28;20266;-62
2021/12/20 04:25:44;;;;;;;10.40;4.50;;;;;;;;;;6204562;28;20053;-62
2021/12/20 04:28:45;;;;;;;10.90;4.40;;;;;;;;;;6203330;28;20046;-62
2021/12/20 04:31:46;;;;;;;8.23;3.90;;;;;;;;;;6205358;28;20047;-63
2021/12/20 04:34:47;;;;;;;7.35;4.10;;;;;;;;;;6203291;28;20113;-63
2021/12/20 04:37:49;;;;;;;7.97;4.13;;;;;;;;;;6198745;28;20074;-63
2021/12/20 04:40:50;;;;;;;9.30;4.30;;;;;;;;;;6198925;28;20042;-63
2021/12/20 04:43:50;;;;;;;9.80;4.55;;;;;;;;;;6201355;28;20080;-62
2021/12/20 04:46:51;;;;;;;12.95;4.20;;;;;;;;;;6210536;28;20061;-61
2021/12/20 04:49:52;;;;;;;7.97;4.18;;;;;;;;;;6207249;28;20076;-62
2021/12/20 04:52:54;;;;;;;8.38;4.20;;;;;;;;;;6206233;28;20049;-62
2021/12/20 04:55:55;;;;;;;;;;;;;;;;;;6198413;28;20050;-62
2021/12/20 04:58:56;;;;;;;9.07;4.57;;;;;;;;;;6205647;28;20414;-64
2021/12/20 05:01:56;;;;;;;8.85;4.93;;;;;;;;;;6202263;28;20046;-61
2021/12/20 05:04:57;;;;;;;10.30;4.68;;;;;;;;;;6206732;28;20471;-61
2021/12/20 05:07:58;;;;;;;11.32;5.63;;;;;;;;;;6203557;28;20050;-62
2021/12/20 05:10:58;;;;;;;8.95;4.70;;;;;;;;;;6213058;28;20053;-62
2021/12/20 05:14:00;;;;;;;10.50;4.97;;;;;;;;;;6205042;28;20054;-62
2021/12/20 05:17:01;;;;;;;10.55;5.38;;;;;;;;;;6199739;28;20058;-61
2021/12/20 05:20:03;;;;;;;9.57;5.05;;;;;;;;;;6205758;28;20074;-62
2021/12/20 05:23:04;;;;;;;11.43;5.13;;;;;;;;;;6196284;28;20046;-64
2021/12/20 05:26:05;;;;;;;10.77;5.72;;;;;;;;;;6197772;28;20050;-62
2021/12/20 05:29:07;;;;;;;12.25;5.32;;;;;;;;;;6198653;28;20131;-64
2021/12/20 05:32:08;;;;;;;13.43;5.47;;;;;;;;;;6208122;28;20497;-62
2021/12/20 05:35:11;;;;;;;10.87;5.33;;;;;;;;;;6206502;28;20129;-62
2021/12/20 05:38:12;;;;;;;10.00;5.00;;;;;;;;;;6200911;28;20169;-63
2021/12/20 05:41:12;;;;;;;9.90;5.28;;;;;;;;;;6201815;28;20057;-61
2021/12/20 05:44:13;;;;;;;10.35;5.38;;;;;;;;;;6210306;28;20225;-61
2021/12/20 05:47:13;;;;;;;9.68;5.30;;;;;;;;;;6202930;28;20041;-63
2021/12/20 05:50:16;;;;;;;15.38;5.88;;;;;;;;;;6196816;28;20537;-69
2021/12/20 05:53:17;;;;;;;11.00;5.20;;;;;;;;;;6203456;28;20473;-63
2021/12/20 05:56:17;;;;;;;11.32;4.88;;;;;;;;;;6203914;28;20057;-62
2021/12/20 05:59:18;;;;;;;10.50;5.22;;;;;;;;;;6207624;28;20050;-62
2021/12/20 06:02:19;;;;;;;10.18;5.28;;;;;;;;;;6200965;28;20145;-60
2021/12/20 06:05:20;;;;;;;12.93;5.28;;;;;;;;;;6200501;28;20038;-61
2021/12/20 06:08:21;;;;;;;9.52;5.28;;;;;;;;;;6206907;28;20385;-60
2021/12/20 06:11:22;;;;;;;9.85;5.30;;;;;;;;;;6198791;28;20043;-63
2021/12/20 06:14:23;;;;;;;10.05;5.20;;;;;;;;;;6201654;28;20339;-62
2021/12/20 06:17:24;;;;;;;10.25;5.07;;;;;;;;;;6204641;28;20069;-60
2021/12/20 06:20:25;;;;;;;12.52;6.07;;;;;;;;;;6205897;28;20045;-62
2021/12/20 06:23:25;;;;;;;10.70;5.78;;;;;;;;;;6208627;28;20568;-62
2021/12/20 06:26:26;;;;;;;11.20;5.50;;;;;;;;;;6199626;28;20058;-61
2021/12/20 06:29:26;;;;;;;13.55;7.07;;;;;;;;;;6205281;28;20081;-63
2021/12/20 06:32:27;;;;;;;12.20;6.80;;;;;;;;;;6202565;28;20046;-63
2021/12/20 06:35:28;;;;;;;11.05;6.00;;;;;;;;;;6208354;28;20192;-63
2021/12/20 06:38:29;;;;;;;13.32;6.72;;;;;;;;;;6193808;28;20042;-60
2021/12/20 06:41:29;;;;;;;12.10;6.30;;;;;;;;;;6203280;28;20133;-60
2021/12/20 06:44:30;;;;;;;12.05;6.32;;;;;;;;;;6205895;28;20056;-62
2021/12/20 06:47:31;;;;;;;12.30;7.00;;;;;;;;;;6203282;28;20038;-59
2021/12/20 06:50:33;;;;;;;14.10;7.45;;;;;;;;;;6201914;28;20047;-63
2021/12/20 06:53:33;;;;;;;12.68;6.95;;;;;;;;;;6202591;28;20466;-63
2021/12/20 06:56:34;;;;;;;13.98;6.50;;;;;;;;;;6202650;28;20041;-61
2021/12/20 06:59:35;;;;;;;13.82;6.80;;;;;;;;;;6211028;28;20038;-64
2021/12/20 07:02:35;;;;;;;14.18;6.40;;;;;;;;;;6215235;28;20061;-62
2021/12/20 07:05:36;;;;;;;11.32;6.43;;;;;;;;;;6217442;28;20188;-62
2021/12/20 07:08:37;;;;;;;11.32;6.30;;;;;;;;;;6217711;28;20515;-62
2021/12/20 07:11:40;;;;;;;14.63;6.38;;;;;;;;;;6206253;28;20042;-62
2021/12/20 07:14:42;;;;;;;10.77;5.53;;;;;;;;;;6207383;28;20048;-62
2021/12/20 07:17:43;;;;;;;12.27;6.57;;;;;;;;;;6210437;28;20050;-63
2021/12/20 07:20:43;;;;;;;12.57;5.93;;;;;;;;;;6213142;28;20052;-61
2021/12/20 07:23:44;;;;;;;14.52;6.32;;;;;;;;;;6221367;28;20100;-60
2021/12/20 07:26:45;;;;;;;13.18;7.45;;;;;;;;;;6220478;28;20077;-60
2021/12/20 07:29:46;;;;;;;15.02;7.47;;;;;;;;;;6219511;28;20052;-61
2021/12/20 07:32:48;;;;;;;13.10;6.78;;;;;;;;;;6220657;28;20129;-63
2021/12/20 07:35:49;;;;;;;15.35;7.10;;;;;;;;;;6221288;28;20050;-61
2021/12/20 07:38:51;;;;;;;11.23;6.75;;;;;;;;;;6220670;28;20129;-62
2021/12/20 07:41:51;;;;;;;14.10;7.32;;;;;;;;;;6211670;28;20073;-62
2021/12/20 07:44:52;;;;;;;13.18;6.57;;;;;;;;;;6207737;28;20058;-61
2021/12/20 07:47:53;;;;;;;13.82;6.45;;;;;;;;;;6209512;28;20064;-61
2021/12/20 07:50:54;;;;;;;15.40;7.60;;;;;;;;;;6204860;28;20054;-62
2021/12/20 07:53:54;;;;;;;14.13;7.40;;;;;;;;;;6211101;28;20058;-61
2021/12/20 07:56:55;;;;;;;19.33;8.20;;;;;;;;;;6207424;28;20379;-61
2021/12/20 07:59:56;;;;;;;26.35;10.65;;;;;;;;;;6202853;28;20052;-62
2021/12/20 08:02:57;;;;;;;15.85;6.88;;;;;;;;;;6207419;28;20086;-63
2021/12/20 08:05:58;;;;;;;19.70;8.65;;;;;;;;;;6204482;28;20058;-61
2021/12/20 08:08:59;;;;;;;23.33;9.20;;;;;;;;;;6203155;28;20046;-70
2021/12/20 08:11:59;;;;;;;17.33;7.25;;;;;;;;;;6215263;28;20050;-62
2021/12/20 08:15:00;;;;;;;14.88;5.82;;;;;;;;;;6212648;28;20046;-62
2021/12/20 08:18:01;;;;;;;19.98;6.78;;;;;;;;;;6204735;28;20168;-62
2021/12/20 08:21:02;;;;;;;14.40;5.93;;;;;;;;;;6198704;28;20133;-62
2021/12/20 08:24:03;;;;;;;17.02;6.32;;;;;;;;;;6207001;28;20485;-62
2021/12/20 08:27:04;;;;;;;11.98;6.35;;;;;;;;;;6205748;28;20050;-61
2021/12/20 08:30:06;;;;;;;12.63;5.60;;;;;;;;;;6203226;28;20136;-63
2021/12/20 08:33:07;;;;;;;10.50;5.68;;;;;;;;;;6204040;28;20691;-61
2021/12/20 08:36:12;;;;;;;12.40;6.28;;;;;;;;;;6208936;28;20073;-61
2021/12/20 08:39:19;;;;;;;10.57;6.10;;;;;;;;;;6199656;28;20493;-62
2021/12/20 08:42:20;;;;;;;10.10;5.38;;;;;;;;;;6208340;28;20382;-62
2021/12/20 08:45:21;;;;;;;8.93;5.82;;;;;;;;;;6205269;28;20049;-61
2021/12/20 08:48:21;;;;;;;11.90;5.95;;;;;;;;;;6207013;28;20501;-62
2021/12/20 08:51:25;;;;;;;12.90;6.85;;;;;;;;;;6204509;28;20052;-62
2021/12/20 08:54:27;;;;;;;12.52;5.97;;;;;;;;;;6208404;28;20444;-61
2021/12/20 08:57:28;;;;;;;13.43;5.68;;;;;;;;;;6208876;28;20057;-61
2021/12/20 09:00:32;;;;;;;9.40;6.20;;;;;;;;;;6203135;28;20704;-61
2021/12/20 09:03:33;;;;;;;12.85;5.63;;;;;;;;;;6217676;28;20394;-61
2021/12/20 09:06:38;;;;;;;10.60;5.55;;;;;;;;;;6216693;28;20086;-61
2021/12/20 09:09:43;;;;;;;11.52;6.45;;;;;;;;;;6203876;28;20480;-61
2021/12/20 09:12:45;;;;;;;15.10;6.43;;;;;;;;;;6207567;28;20477;-61
2021/12/20 09:15:46;;;;;;;11.85;6.18;;;;;;;;;;6207273;28;20045;-61
2021/12/20 09:18:48;;;;;;;15.00;6.13;;;;;;;;;;6208771;28;20042;-61
2021/12/20 09:21:49;;;;;;;9.57;5.63;;;;;;;;;;6202917;28;20140;-62
2021/12/20 09:24:50;;;;;;;13.20;5.75;;;;;;;;;;6203345;28;20058;-61
2021/12/20 09:27:52;;;;;;;9.45;5.50;;;;;;;;;;6207954;28;20053;-61
2021/12/20 09:30:53;;;;;;;12.38;6.32;;;;;;;;;;6203918;28;20081;-62
2021/12/20 09:33:55;;;;;;;10.68;6.07;;;;;;;;;;6206062;28;20485;-60
2021/12/20 09:36:56;;;;;;;12.65;6.63;;;;;;;;;;6205255;28;20792;-61
2021/12/20 09:39:59;;;;;;;12.30;6.05;;;;;;;;;;6212244;28;20053;-61
2021/12/20 09:43:13;;;;;;;14.00;6.15;;;;;;;;;;6215051;28;20053;-61
2021/12/20 09:46:16;;;;;;;9.50;5.38;;;;;;;;;;6213815;28;20046;-61
2021/12/20 09:49:18;;;;;;;10.15;5.38;;;;;;;;;;6213366;28;20065;-62
2021/12/20 09:52:19;;;;;;;9.98;6.22;;;;;;;;;;6215710;28;20087;-62
2021/12/20 09:55:20;;;;;;;11.82;6.25;;;;;;;;;;6215018;28;20390;-61
2021/12/20 09:58:23;;;;;;;15.30;7.00;;;;;;;;;;6214609;28;20057;-62
2021/12/20 10:01:26;;;;;;;11.70;5.80;;;;;;;;;;6214253;28;20099;-61
2021/12/20 10:04:28;;;;;;;12.50;6.60;;;;;;;;;;6210327;28;20046;-61
2021/12/20 10:07:29;;;;;;;10.15;6.05;;;;;;;;;;6215581;28;20553;-63
2021/12/20 10:10:43;;;;;;;11.05;6.15;;;;;;;;;;6217730;28;20042;-61
2021/12/20 10:13:44;;;;;;;11.10;5.50;;;;;;;;;;6212427;28;20132;-61
2021/12/20 10:16:45;;;;;;;10.63;5.20;;;;;;;;;;6214479;28;20062;-62
2021/12/20 10:19:46;;;;;;;9.50;5.35;;;;;;;;;;6216312;28;20085;-61
2021/12/20 10:22:47;;;;;;;11.07;4.95;;;;;;;;;;6214325;28;20049;-61
2021/12/20 10:25:52;;;;;;;10.88;5.07;;;;;;;;;;6208434;28;20054;-61
2021/12/20 10:28:53;;;;;;;9.27;5.05;;;;;;;;;;6204218;28;20380;-61
2021/12/20 10:31:54;;;;;;;10.95;5.03;;;;;;;;;;6203928;28;20053;-61
2021/12/20 10:34:55;;;;;;;13.35;5.55;;;;;;;;;;6202186;28;20045;-61
2021/12/20 10:38:28;;;;;;;10.00;5.47;;;;;;;;;;6207672;28;20078;-61
2021/12/20 10:41:35;;;;;;;12.95;6.63;;;;;;;;;;6198814;28;20058;-61
2021/12/20 10:44:36;;;;;;;11.38;6.28;;;;;;;;;;6209895;28;20245;-61
2021/12/20 10:47:38;;;;;;;13.27;6.75;;;;;;;;;;6207173;28;20049;-62
2021/12/20 10:50:42;;;;;;;12.00;5.90;;;;;;;;;;6210250;28;20497;-61
2021/12/20 10:53:54;;;;;;;13.70;6.30;;;;;;;;;;6208317;28;20077;-62
2021/12/20 10:57:05;;;;;;;11.47;5.73;;;;;;;;;;6204997;28;20041;-61
2021/12/20 11:00:18;;;;;;;16.90;5.80;;;;;;;;;;6212882;28;20575;-61
2021/12/20 11:03:26;;;;;;;;;;;;;;;;;;6219654;28;20084;-61
2021/12/20 11:09:55;;;;;;;10.70;5.97;;;;;;;;;;6204019;28;20045;-61
2021/12/20 11:12:55;;;;;;;11.43;6.10;;;;;;;;;;6219316;28;20066;-61
2021/12/20 11:15:56;;;;;;;10.05;5.97;;;;;;;;;;6214981;28;20167;-62
2021/12/20 11:19:24;;;;;;;11.95;6.80;;;;;;;;;;6205210;28;20046;-62
2021/12/20 11:22:29;;;;;;;13.13;7.10;;;;;;;;;;6203421;28;20050;-61
2021/12/20 11:25:31;;;;;;;13.27;6.13;;;;;;;;;;6209877;28;20046;-62
2021/12/20 11:28:31;;;;;;;13.02;7.20;;;;;;;;;;6207056;28;20050;-63
2021/12/20 11:31:32;;;;;;;14.55;7.45;;;;;;;;;;6208204;28;20050;-61
2021/12/20 11:34:34;;;;;;;12.75;6.55;;;;;;;;;;6199520;28;20050;-62
2021/12/20 11:37:35;;;;;;;13.45;6.55;;;;;;;;;;6209320;28;20448;-61
2021/12/20 11:40:36;;;;;;;13.85;6.18;;;;;;;;;;6211036;28;20607;-61
2021/12/20 11:43:37;;;;;;;14.95;6.30;;;;;;;;;;6206839;28;20049;-61
2021/12/20 11:46:46;;;;;;;14.18;7.75;;;;;;;;;;6208665;28;20054;-61
2021/12/20 11:49:56;;;;;;;16.25;9.25;;;;;;;;;;6208804;28;20603;-61
2021/12/20 11:53:08;;;;;;;11.13;6.95;;;;;;;;;;6205538;28;20521;-62
2021/12/20 11:56:09;;;;;;;12.77;7.97;;;;;;;;;;6208147;28;21576;-61
2021/12/20 11:59:10;;;;;;;13.98;7.55;;;;;;;;;;6208728;28;20061;-61
2021/12/20 12:02:21;;;;;;;13.77;6.45;;;;;;;;;;6206099;28;20060;-61
2021/12/20 12:05:48;;;;;;;12.00;6.13;;;;;;;;;;6207354;28;20463;-61
2021/12/20 12:08:48;;;;;;;16.35;6.70;;;;;;;;;;6208952;28;20053;-61
2021/12/20 12:11:49;;;;;;;13.02;5.65;;;;;;;;;;6208279;28;20045;-61
2021/12/20 12:15:08;;;;;;;10.73;5.72;;;;;;;;;;6204696;28;20050;-61
2021/12/20 12:18:10;;;;;;;12.35;6.22;;;;;;;;;;6206652;28;20050;-61
2021/12/20 12:21:43;;;;;;;12.07;5.88;;;;;;;;;;6208548;28;20472;-62
2021/12/20 12:24:45;;;;;;;;;;;;;;;;;;6184276;28;20062;-61
2021/12/20 12:27:56;;;;;;;12.70;5.23;;;;;;;;;;6207874;28;20716;-61
2021/12/20 12:31:03;;;;;;;12.30;4.95;;;;;;;;;;6208753;28;20297;-61
2021/12/20 12:34:06;;;;;;;12.00;5.82;;;;;;;;;;6196675;28;20511;-61
2021/12/20 12:37:36;;;;;;;10.02;5.00;;;;;;;;;;6200793;28;20140;-61
2021/12/20 12:40:37;;;;;;;10.65;4.85;;;;;;;;;;6200442;28;20076;-62
2021/12/20 12:43:50;;;;;;;10.63;5.03;;;;;;;;;;6199369;28;20397;-61
2021/12/20 12:46:53;;;;;;;;;;;;;;;;;;6202985;28;20579;-61
2021/12/20 12:49:56;;;;;;;;;;;;;;;;;;6202269;28;20329;-61
2021/12/20 12:52:57;;;;;;;9.43;4.40;;;;;;;;;;6207030;28;19921;-61
2021/12/20 12:56:23;;;;;;;11.20;5.32;;;;;;;;;;6208382;28;20152;-61
2021/12/20 12:59:24;;;;;;;8.73;4.82;;;;;;;;;;6208304;28;20041;-61
2021/12/20 13:02:27;;;;;;;10.35;5.53;;;;;;;;;;6205378;28;20049;-61
2021/12/20 13:05:28;;;;;;;12.27;5.82;;;;;;;;;;6207873;28;20054;-61
2021/12/20 13:08:29;;;;;;;13.68;6.07;;;;;;;;;;6208177;28;20054;-61
2021/12/20 13:11:31;;;;;;;11.27;6.30;;;;;;;;;;6206023;28;20062;-61
2021/12/20 13:14:33;;;;;;;10.27;5.88;;;;;;;;;;6205793;28;20050;-61
2021/12/20 13:17:40;;;;;;;12.90;6.45;;;;;;;;;;6208148;28;20149;-61
2021/12/20 13:23:55;;;;;;;15.07;5.78;;;;;;;;;;6204417;28;20064;-61
2021/12/20 13:27:11;;;;;;;10.18;5.47;;;;;;;;;;6205219;28;20042;-61
2021/12/20 13:30:12;;;;;;;14.40;6.95;;;;;;;;;;6205371;28;20076;-61
2021/12/20 13:33:14;;;;;;;12.63;6.60;;;;;;;;;;6202455;28;20049;-61
2021/12/20 13:36:17;;;;;;;;;;;;;;;;;;6205247;28;20075;-61
2021/12/20 13:39:18;;;;;;;14.13;6.63;;;;;;;;;;6205589;28;19929;-61
2021/12/20 13:42:18;;;;;;;14.50;7.40;;;;;;;;;;6203309;28;20057;-61
2021/12/20 13:45:19;;;;;;;11.40;6.30;;;;;;;;;;6203318;28;20054;-61
2021/12/20 13:48:20;;;;;;;16.25;7.55;;;;;;;;;;6205901;28;20064;-61
2021/12/20 13:51:29;;;;;;;11.80;6.70;;;;;;;;;;6206125;28;20839;-61
2021/12/20 13:54:35;;;;;;;12.95;6.18;;;;;;;;;;6203137;28;20074;-62
2021/12/20 13:57:36;;;;;;;10.40;6.28;;;;;;;;;;6201388;28;20069;-61
2021/12/20 14:00:37;;;;;;;14.77;7.28;;;;;;;;;;6200422;28;20133;-61
2021/12/20 14:03:40;;;;;;;12.75;6.50;;;;;;;;;;6200170;28;20719;-63
2021/12/20 14:06:41;;;;;;;10.70;6.53;;;;;;;;;;6200577;28;20077;-61
2021/12/20 14:10:05;;;;;;;13.98;6.85;;;;;;;;;;6201578;28;20506;-61
2021/12/20 14:13:08;;;;;;;11.65;6.50;;;;;;;;;;6201256;28;20076;-61
2021/12/20 14:16:08;;;;;;;12.30;6.65;;;;;;;;;;6201435;28;20061;-61
2021/12/20 14:19:09;;;;;;;15.23;6.80;;;;;;;;;;6203405;28;20543;-61
2021/12/20 14:22:09;;;;;;;16.05;7.43;;;;;;;;;;6204766;28;20054;-60
2021/12/20 14:25:10;;;;;;;15.63;7.35;;;;;;;;;;6202758;28;20058;-61
2021/12/20 14:28:20;;;;;;;14.80;7.57;;;;;;;;;;6204972;28;20049;-61
2021/12/20 14:31:38;;;;;;;13.52;7.07;;;;;;;;;;6205292;28;20050;-61
2021/12/20 14:34:38;;;;;;;12.23;7.03;;;;;;;;;;6202013;28;20060;-61
2021/12/20 14:37:39;;;;;;;11.35;6.60;;;;;;;;;;6202602;28;20042;-59
2021/12/20 14:40:48;;;;;;;14.13;7.15;;;;;;;;;;6204730;28;20425;-59
2021/12/20 14:43:50;;;;;;;13.38;6.95;;;;;;;;;;6201472;28;20583;-61
2021/12/20 14:47:02;;;;;;;12.20;5.68;;;;;;;;;;6202078;28;20099;-61
2021/12/20 14:50:24;;;;;;;10.45;5.88;;;;;;;;;;6201344;28;20054;-61
2021/12/20 14:53:26;;;;;;;10.55;5.40;;;;;;;;;;6196158;28;20073;-61
2021/12/20 14:56:29;;;;;;;11.98;6.28;;;;;;;;;;6203039;28;20160;-61
2021/12/20 14:59:31;;;;;;;11.98;6.68;;;;;;;;;;6205996;28;20072;-60
2021/12/20 15:02:37;;;;;;;12.93;6.50;;;;;;;;;;6208890;28;20058;-61
2021/12/20 15:05:38;;;;;;;11.32;6.07;;;;;;;;;;6213345;28;20065;-62
2021/12/20 15:08:39;;;;;;;12.15;6.30;;;;;;;;;;6207889;28;20073;-61
2021/12/20 15:11:40;;;;;;;12.18;6.50;;;;;;;;;;6205759;28;20056;-62
2021/12/20 15:14:41;;;;;;;13.60;6.32;;;;;;;;;;6203125;28;20053;-61
2021/12/20 15:17:41;;;;;;;15.18;7.25;;;;;;;;;;6202795;28;20064;-61
2021/12/20 15:20:42;;;;;;;11.80;6.85;;;;;;;;;;6203179;28;20085;-62
2021/12/20 15:23:42;;;;;;;14.13;7.25;;;;;;;;;;6200426;28;20140;-61
2021/12/20 15:26:43;;;;;;;14.07;6.50;;;;;;;;;;6203034;28;20880;-62
2021/12/20 15:29:44;;;;;;;13.63;7.20;;;;;;;;;;6201314;28;20058;-59
2021/12/20 15:32:45;;;;;;;13.90;7.03;;;;;;;;;;6199497;28;20046;-60
2021/12/20 15:35:46;;;;;;;15.68;6.80;;;;;;;;;;6205888;28;20141;-60
2021/12/20 15:38:47;;;;;;;11.50;6.50;;;;;;;;;;6203593;28;20132;-60
2021/12/20 15:41:57;;;;;;;11.40;6.10;;;;;;;;;;6201289;28;20629;-63
2021/12/20 15:45:00;;;;;;;11.80;6.95;;;;;;;;;;6200915;28;20069;-61
2021/12/20 15:48:01;;;;;;;12.30;6.95;;;;;;;;;;6200661;28;20050;-61
2021/12/20 15:51:02;;;;;;;13.65;7.07;;;;;;;;;;6200817;28;20082;-61
2021/12/20 15:54:04;;;;;;;14.70;7.18;;;;;;;;;;6199763;28;20049;-62
2021/12/20 15:57:05;;;;;;;13.82;7.00;;;;;;;;;;6202175;28;20060;-61
2021/12/20 16:00:07;;;;;;;15.40;6.70;;;;;;;;;;6201777;28;20061;-61
2021/12/20 16:03:07;;;;;;;15.52;7.20;;;;;;;;;;6197463;28;20054;-60
2021/12/20 16:06:08;;;;;;;12.13;6.68;;;;;;;;;;6201847;28;20119;-61
2021/12/20 16:09:09;;;;;;;16.83;8.23;;;;;;;;;;6201083;28;20181;-62
2021/12/20 16:12:09;;;;;;;16.20;8.48;;;;;;;;;;6201268;28;20058;-62
2021/12/20 16:15:12;;;;;;;18.50;8.77;;;;;;;;;;6202066;28;20627;-61
2021/12/20 16:18:13;;;;;;;17.38;7.53;;;;;;;;;;6200650;28;20054;-61
2021/12/20 16:21:13;;;;;;;12.93;6.60;;;;;;;;;;6206991;28;20631;-60
2021/12/20 16:24:15;;;;;;;11.55;5.57;;;;;;;;;;6208218;28;20064;-61
2021/12/20 16:27:17;;;;;;;10.13;5.18;;;;;;;;;;6207656;28;20061;-60
2021/12/20 16:30:23;;;;;;;9.10;4.38;;;;;;;;;;6208095;28;20539;-60
2021/12/20 16:33:24;;;;;;;7.25;4.20;;;;;;;;;;6208840;28;20446;-60
2021/12/20 16:36:25;;;;;;;8.85;3.22;;;;;;;;;;6211206;28;20452;-63
2021/12/20 16:39:31;;;;;;;7.20;2.80;;;;;;;;;;6208592;28;20093;-61
2021/12/20 16:42:31;;;;;;;5.93;3.15;;;;;;;;;;6205236;28;21121;-61
2021/12/20 16:45:52;;;;;;;8.45;3.60;;;;;;;;;;6210879;28;20156;-61
2021/12/20 16:48:57;;;;;;;8.07;3.38;;;;;;;;;;6209508;28;20060;-62
2021/12/20 16:51:57;;;;;;;7.68;4.03;;;;;;;;;;6206094;28;20096;-61
2021/12/20 16:54:58;;;;;;;8.30;4.05;;;;;;;;;;6207857;28;20054;-60
2021/12/20 16:57:59;;;;;;;10.55;4.60;;;;;;;;;;6210163;28;20054;-61
2021/12/20 17:01:02;;;;;;;9.45;4.50;;;;;;;;;;6207586;28;20107;-61
2021/12/20 17:07:10;;;;;;;9.50;4.10;;;;;;;;;;6209273;28;20053;-60
2021/12/20 17:10:10;;;;;;;10.25;3.90;;;;;;;;;;6208477;28;20045;-63
2021/12/20 17:13:13;;;;;;;9.93;4.38;;;;;;;;;;6204926;28;20108;-62
2021/12/20 17:16:14;;;;;;;;;;;;;;;;;;6208460;28;20745;-61
2021/12/20 17:19:15;;;;;;;8.73;4.40;;;;;;;;;;6208076;28;20015;-61
2021/12/20 17:22:15;;;;;;;7.85;3.97;;;;;;;;;;6206734;28;20108;-60
2021/12/20 17:25:16;;;;;;;10.07;4.75;;;;;;;;;;6208290;28;20076;-60
2021/12/20 17:28:17;;;;;;;10.95;5.57;;;;;;;;;;6209153;28;20057;-61
2021/12/20 17:31:17;;;;;;;11.85;5.25;;;;;;;;;;6205514;28;20129;-61
2021/12/20 17:34:18;;;;;;;10.63;5.93;;;;;;;;;;6203361;28;20042;-63
2021/12/20 17:37:19;;;;;;;12.30;5.82;;;;;;;;;;6207994;28;20077;-61
2021/12/20 17:40:20;;;;;;;13.50;6.40;;;;;;;;;;6205986;28;20390;-59
2021/12/20 17:43:21;;;;;;;15.45;6.50;;;;;;;;;;6202737;28;20561;-62
2021/12/20 17:46:22;;;;;;;13.23;6.78;;;;;;;;;;6205042;28;20064;-60
2021/12/20 17:49:23;;;;;;;14.05;6.75;;;;;;;;;;6203194;28;20405;-60
2021/12/20 17:52:23;;;;;;;13.82;7.00;;;;;;;;;;6200612;28;20119;-60
2021/12/20 17:55:24;;;;;;;14.50;7.25;;;;;;;;;;6206087;28;20042;-61
2021/12/20 17:58:25;;;;;;;13.90;6.40;;;;;;;;;;6208911;28;20096;-61
2021/12/20 18:01:25;;;;;;;16.80;7.47;;;;;;;;;;6206837;28;20050;-63
2021/12/20 18:04:26;;;;;;;16.05;7.45;;;;;;;;;;6204964;28;20412;-60
2021/12/20 18:07:29;;;;;;;16.02;7.03;;;;;;;;;;6208599;28;20453;-61
2021/12/20 18:10:31;;;;;;;14.15;6.72;;;;;;;;;;6206547;28;20246;-61
2021/12/20 18:13:31;;;;;;;13.73;6.50;;;;;;;;;;6204655;28;20042;-61
2021/12/20 18:16:33;;;;;;;14.82;6.43;;;;;;;;;;6208291;28;20549;-61
2021/12/20 18:19:33;;;;;;;11.50;6.18;;;;;;;;;;6206586;28;20095;-61
2021/12/20 18:22:34;;;;;;;12.98;6.55;;;;;;;;;;6202326;28;20058;-62